Time;durP1;ratioP1;P1;durP2;ratioP2;P2;SDS_P1;SDS_P2;PMS_P1;PMS_P2;Temp;Humidity;BMP_temperature;BMP_pressure;BME280_temperature;BME280_humidity;BME280_pressure;Samples;Min_cycle;Max_cycle;Signal;HPM_P1;HPM_P2
2021/07/16 00:03:03;;;;;;;12.13;3.28;;;;;;;0.01;0.00;59042.03;10319233;28;20083;-62
2021/07/16 00:08:04;;;;;;;4.72;3.22;;;;;;;0.01;0.00;59042.03;10318425;28;20084;-62
2021/07/16 00:13:03;;;;;;;6.50;2.90;;;;;;;0.01;0.00;59042.03;10320338;28;20044;-62
2021/07/16 00:18:02;;;;;;;6.30;3.08;;;;;;;0.01;0.00;59042.03;10317146;28;20486;-62
2021/07/16 00:23:01;;;;;;;9.98;3.35;;;;;;;0.01;0.00;59042.03;10319561;28;20080;-62
2021/07/16 00:28:01;;;;;;;8.32;2.90;;;;;;;0.01;0.00;59042.03;10319622;28;20044;-62
2021/07/16 00:33:00;;;;;;;6.10;3.00;;;;;;;0.01;0.00;59042.03;10317436;28;20421;-62
2021/07/16 00:37:59;;;;;;;7.30;2.92;;;;;;;0.01;0.00;59042.03;10317476;28;20072;-61
2021/07/16 00:42:58;;;;;;;3.00;2.72;;;;;;;0.01;0.00;59042.03;10316363;28;20182;-61
2021/07/16 00:47:58;;;;;;;4.97;2.83;;;;;;;0.01;0.00;59042.03;10318579;28;20562;-62
2021/07/16 00:52:57;;;;;;;6.97;3.13;;;;;;;0.01;0.00;59042.03;10318056;28;20490;-61
2021/07/16 00:57:55;;;;;;;11.20;3.20;;;;;;;0.01;0.00;59042.03;10316208;28;20044;-62
2021/07/16 01:02:54;;;;;;;7.90;3.58;;;;;;;0.01;0.00;59042.03;10303528;28;20080;-62
2021/07/16 01:07:55;;;;;;;5.57;3.25;;;;;;;0.01;0.00;59042.03;10315012;28;20413;-61
2021/07/16 01:12:55;;;;;;;8.75;4.07;;;;;;;0.01;0.00;59042.03;10317111;28;20070;-59
2021/07/16 01:17:55;;;;;;;11.32;3.40;;;;;;;0.01;0.00;59042.03;10317359;28;20040;-59
2021/07/16 01:22:58;;;;;;;7.70;3.80;;;;;;;0.01;0.00;59042.03;10316101;28;20072;-59
2021/07/16 01:28:01;;;;;;;11.25;3.90;;;;;;;0.01;0.00;59042.03;10315990;28;20086;-59
2021/07/16 01:33:01;;;;;;;8.70;3.35;;;;;;;0.01;0.00;59042.03;10314994;28;20075;-59
2021/07/16 01:38:01;;;;;;;14.15;3.60;;;;;;;0.01;0.00;59042.03;10315052;28;20095;-59
2021/07/16 01:43:01;;;;;;;6.78;3.17;;;;;;;0.01;0.00;59042.03;10314522;28;20080;-59
2021/07/16 01:48:02;;;;;;;6.47;3.60;;;;;;;0.01;0.00;59042.03;10316031;28;20095;-59
2021/07/16 01:53:02;;;;;;;6.07;3.63;;;;;;;0.01;0.00;59042.03;10316809;28;20522;-60
2021/07/16 01:58:05;;;;;;;10.13;3.60;;;;;;;0.01;0.00;59042.03;10313576;28;20096;-59
2021/07/16 02:03:04;;;;;;;;;;;;;;;0.01;0.00;59042.03;10314328;28;20078;-59
2021/07/16 02:08:07;;;;;;;10.73;3.60;;;;;;;0.01;0.00;59042.03;10317268;28;19955;-59
2021/07/16 02:13:07;;;;;;;4.47;2.80;;;;;;;0.01;0.00;59042.03;10323486;28;20076;-60
2021/07/16 02:18:06;;;;;;;5.93;3.08;;;;;;;0.01;0.00;59042.03;10324709;28;20052;-59
2021/07/16 02:23:08;;;;;;;7.07;3.40;;;;;;;0.01;0.00;59042.03;10322596;28;20084;-60
2021/07/16 02:28:11;;;;;;;17.02;4.05;;;;;;;0.01;0.00;59042.03;10322034;28;20497;-59
2021/07/16 02:33:10;;;;;;;9.83;4.77;;;;;;;0.01;0.00;59042.03;10317056;28;20087;-59
2021/07/16 02:38:09;;;;;;;8.50;3.25;;;;;;;0.01;0.00;59042.03;10316002;28;20490;-59
2021/07/16 02:43:09;;;;;;;9.45;3.33;;;;;;;0.01;0.00;59042.03;10314551;28;20102;-59
2021/07/16 02:48:08;;;;;;;4.00;3.15;;;;;;;0.01;0.00;59042.03;10317758;28;20086;-59
2021/07/16 02:53:08;;;;;;;8.98;3.88;;;;;;;0.01;0.00;59042.03;10321608;28;20064;-59
2021/07/16 02:58:09;;;;;;;9.05;3.80;;;;;;;0.01;0.00;59042.03;10321001;28;20069;-59
2021/07/16 03:03:09;;;;;;;20.13;6.05;;;;;;;0.01;0.00;59042.03;10320050;28;20130;-59
2021/07/16 05:35:38;;;;;;;14.05;5.50;;;;;;;0.01;0.00;59042.03;10276089;28;20084;-65
2021/07/16 05:40:38;;;;;;;13.48;7.40;;;;;;;0.01;0.00;59042.03;10275983;28;20045;-65
2021/07/16 05:45:38;;;;;;;16.02;5.60;;;;;;;0.01;0.00;59042.03;10274849;28;20072;-65
2021/07/16 05:50:38;;;;;;;16.15;5.97;;;;;;;0.01;0.00;59042.03;10275230;28;20474;-65
2021/07/16 05:55:38;;;;;;;9.77;5.03;;;;;;;0.01;0.00;59042.03;10275667;28;20045;-66
2021/07/16 06:00:37;;;;;;;10.80;6.75;;;;;;;0.01;0.00;59042.03;10275165;28;20486;-66
2021/07/16 06:05:38;;;;;;;12.77;6.80;;;;;;;0.01;0.00;59042.03;10275581;28;20076;-65
2021/07/16 06:10:36;;;;;;;10.60;6.50;;;;;;;0.01;0.00;59042.03;10276046;28;20068;-66
2021/07/16 06:15:35;;;;;;;16.85;8.35;;;;;;;0.01;0.00;59042.03;10275616;28;20406;-66
2021/07/16 06:20:35;;;;;;;13.80;6.82;;;;;;;0.01;0.00;59042.03;10275063;28;20056;-66
2021/07/16 06:25:35;;;;;;;21.25;6.60;;;;;;;0.01;0.00;59042.03;10275246;28;20080;-65
2021/07/16 06:30:34;;;;;;;18.50;7.88;;;;;;;0.01;0.00;59042.03;10275516;28;20388;-65
2021/07/16 06:35:32;;;;;;;13.75;6.05;;;;;;;0.01;0.00;59042.03;10315322;28;20414;-65
2021/07/16 06:40:31;;;;;;;15.80;7.28;;;;;;;0.01;0.00;59042.03;10315382;28;20041;-65
2021/07/16 06:45:31;;;;;;;13.40;6.78;;;;;;;0.01;0.00;59042.03;10297297;28;20521;-65
2021/07/16 06:50:30;;;;;;;13.77;5.82;;;;;;;0.01;0.00;59042.03;10315265;28;20048;-65
2021/07/16 06:55:29;;;;;;;14.15;6.78;;;;;;;0.01;0.00;59042.03;10318291;28;20052;-65
2021/07/16 07:00:27;;;;;;;12.55;5.55;;;;;;;0.01;0.00;59042.03;10322617;28;20055;-65
2021/07/16 07:05:28;;;;;;;12.40;6.07;;;;;;;0.01;0.00;59042.03;10321360;28;20076;-65
2021/07/16 07:10:27;;;;;;;8.57;5.13;;;;;;;0.01;0.00;59042.03;10321378;28;20053;-65
2021/07/16 07:15:25;;;;;;;13.95;6.07;;;;;;;0.01;0.00;59042.03;10321648;28;20047;-65
2021/07/16 07:20:24;;;;;;;16.27;6.85;;;;;;;0.01;0.00;59042.03;10321569;28;20504;-66
2021/07/16 07:25:24;;;;;;;8.38;5.28;;;;;;;0.01;0.00;59042.03;10321467;28;20076;-65
2021/07/16 07:30:25;;;;;;;14.98;5.78;;;;;;;0.01;0.00;59042.03;10321484;28;20056;-65
2021/07/16 07:35:24;;;;;;;9.70;5.70;;;;;;;0.01;0.00;59042.03;10321731;28;20040;-65
2021/07/16 07:40:24;;;;;;;11.57;6.22;;;;;;;0.01;0.00;59042.03;10320727;28;20045;-65
2021/07/16 07:45:23;;;;;;;12.30;5.60;;;;;;;0.01;0.00;59042.03;10302398;28;20080;-65
2021/07/16 07:50:22;;;;;;;17.52;6.00;;;;;;;0.01;0.00;59042.03;10320213;28;20181;-65
2021/07/16 07:55:24;;;;;;;17.23;5.20;;;;;;;0.01;0.00;59042.03;10320267;28;20059;-65
2021/07/16 08:00:26;;;;;;;13.88;7.93;;;;;;;0.01;0.00;59042.03;10320415;28;20374;-65
2021/07/16 08:05:25;;;;;;;11.97;7.13;;;;;;;0.01;0.00;59042.03;10319067;28;20490;-65
2021/07/16 08:10:25;;;;;;;11.07;6.80;;;;;;;0.01;0.00;59042.03;10319423;28;20079;-65
2021/07/16 08:15:24;;;;;;;13.48;6.22;;;;;;;0.01;0.00;59042.03;10318891;28;20478;-65
2021/07/16 08:20:23;;;;;;;13.68;6.55;;;;;;;0.01;0.00;59042.03;10319421;28;20093;-65
2021/07/16 08:25:22;;;;;;;12.65;6.22;;;;;;;0.01;0.00;59042.03;10319724;28;20083;-65
2021/07/16 08:30:22;;;;;;;8.45;5.47;;;;;;;0.01;0.00;59042.03;10318215;28;20494;-65
2021/07/16 08:35:21;;;;;;;12.82;5.65;;;;;;;0.01;0.00;59042.03;10319208;28;20071;-66
2021/07/16 08:40:19;;;;;;;10.27;6.10;;;;;;;0.01;0.00;59042.03;10317857;28;20048;-65
2021/07/16 08:45:20;;;;;;;13.68;5.13;;;;;;;0.01;0.00;59042.03;10318440;28;20075;-65
2021/07/16 08:50:20;;;;;;;11.43;5.40;;;;;;;0.01;0.00;59042.03;10319028;28;20041;-65
2021/07/16 08:55:19;;;;;;;8.02;5.35;;;;;;;0.01;0.00;59042.03;10318040;28;20055;-64
2021/07/16 09:00:18;;;;;;;10.68;5.30;;;;;;;0.01;0.00;59042.03;10317933;28;20045;-65
2021/07/16 09:05:17;;;;;;;11.85;5.50;;;;;;;0.01;0.00;59042.03;10317196;28;20080;-64
2021/07/16 09:10:21;;;;;;;21.73;6.00;;;;;;;0.01;0.00;59042.03;10316460;28;20040;-65
2021/07/16 09:15:24;;;;;;;9.32;6.18;;;;;;;0.01;0.00;59042.03;10317276;28;20044;-65
2021/07/16 09:20:25;;;;;;;7.15;4.82;;;;;;;0.01;0.00;59042.03;10317044;28;20041;-65
2021/07/16 09:25:25;;;;;;;9.55;5.35;;;;;;;0.01;0.00;59042.03;10316341;28;20087;-65
2021/07/16 09:30:26;;;;;;;13.43;5.03;;;;;;;0.01;0.00;59042.03;10313898;28;20049;-64
2021/07/16 09:35:26;;;;;;;16.73;5.55;;;;;;;0.01;0.00;59042.03;10314938;28;20099;-65
2021/07/16 09:40:29;;;;;;;11.70;5.57;;;;;;;0.01;0.00;59042.03;10316730;28;20425;-65
2021/07/16 09:45:28;;;;;;;10.20;5.25;;;;;;;0.01;0.00;59042.03;10315728;28;20107;-65
2021/07/16 09:50:27;;;;;;;12.52;4.95;;;;;;;0.01;0.00;59042.03;10315768;28;20485;-64
2021/07/16 09:55:30;;;;;;;9.13;4.95;;;;;;;0.01;0.00;59042.03;10315894;28;20532;-65
2021/07/16 10:00:29;;;;;;;6.03;3.15;;;;;;;0.01;0.00;59042.03;10315794;28;20404;-65
2021/07/16 10:05:31;;;;;;;13.18;4.43;;;;;;;0.01;0.00;59042.03;10315851;28;20521;-65
2021/07/16 10:10:35;;;;;;;6.03;3.78;;;;;;;0.01;0.00;59042.03;10316323;28;20052;-65
2021/07/16 10:15:34;;;;;;;13.50;3.58;;;;;;;0.01;0.00;59042.03;10315934;28;20044;-64
2021/07/16 10:20:36;;;;;;;9.80;2.55;;;;;;;0.01;0.00;59042.03;10315986;28;20056;-64
2021/07/16 10:25:37;;;;;;;6.68;3.05;;;;;;;0.01;0.00;59042.03;10315058;28;20080;-65
2021/07/16 10:30:40;;;;;;;8.18;2.50;;;;;;;0.01;0.00;59042.03;10319447;28;20045;-65
2021/07/16 10:35:40;;;;;;;4.80;2.97;;;;;;;0.01;0.00;59042.03;10323860;28;20041;-65
2021/07/16 10:40:43;;;;;;;7.13;3.00;;;;;;;0.01;0.00;59042.03;10323609;28;20044;-65
2021/07/16 10:45:42;;;;;;;13.48;3.55;;;;;;;0.01;0.00;59042.03;10322774;28;20482;-65
2021/07/16 10:50:43;;;;;;;5.05;3.17;;;;;;;0.01;0.00;59042.03;10322719;28;20049;-66
2021/07/16 10:56:08;;;;;;;7.25;4.82;;;;;;;0.01;0.00;59042.03;10322288;28;20048;-65
2021/07/16 11:01:08;;;;;;;8.75;3.45;;;;;;;0.01;0.00;59042.03;10310123;28;20057;-65
2021/07/16 11:06:08;;;;;;;7.47;3.55;;;;;;;0.01;0.00;59042.03;10321194;28;20080;-65
2021/07/16 11:11:10;;;;;;;8.57;3.65;;;;;;;0.01;0.00;59042.03;10322659;28;20040;-65
2021/07/16 11:16:43;;;;;;;8.67;3.30;;;;;;;0.01;0.00;59042.03;10322046;28;20056;-65
2021/07/16 11:22:03;;;;;;;7.57;3.58;;;;;;;0.01;0.00;59042.03;10303213;28;20541;-65
2021/07/16 11:27:09;;;;;;;7.40;3.25;;;;;;;0.01;0.00;59042.03;10322210;28;20086;-65
2021/07/16 11:32:11;;;;;;;9.40;2.80;;;;;;;0.01;0.00;59042.03;10321230;28;20080;-65
2021/07/16 11:37:10;;;;;;;8.68;3.20;;;;;;;0.01;0.00;59042.03;10321144;28;20079;-65
2021/07/16 11:42:10;;;;;;;6.78;2.97;;;;;;;0.01;0.00;59042.03;10320615;28;20083;-65
2021/07/16 11:47:17;;;;;;;5.40;2.72;;;;;;;0.01;0.00;59042.03;10321454;28;20119;-65
2021/07/16 11:52:17;;;;;;;6.32;2.90;;;;;;;0.01;0.00;59042.03;10321667;28;20429;-65
2021/07/16 11:57:17;;;;;;;8.55;3.38;;;;;;;0.01;0.00;59042.03;10320370;28;20386;-65
2021/07/16 12:02:18;;;;;;;8.43;3.20;;;;;;;0.01;0.00;59042.03;10319829;28;20045;-65
2021/07/16 12:07:19;;;;;;;9.40;3.50;;;;;;;0.01;0.00;59042.03;10320424;28;20083;-65
2021/07/16 12:12:22;;;;;;;3.05;2.35;;;;;;;0.01;0.00;59042.03;10318626;28;20052;-65
2021/07/16 12:17:23;;;;;;;3.63;2.40;;;;;;;0.01;0.00;59042.03;10319323;28;20056;-65
2021/07/16 12:22:25;;;;;;;15.15;3.85;;;;;;;0.01;0.00;59042.03;10319855;28;20075;-65
2021/07/16 12:27:25;;;;;;;7.57;2.97;;;;;;;0.01;0.00;59042.03;10319711;28;20461;-65
2021/07/16 12:32:35;;;;;;;13.18;3.03;;;;;;;0.01;0.00;59042.03;10319176;28;20056;-65
2021/07/16 12:37:38;;;;;;;6.50;2.95;;;;;;;0.01;0.00;59042.03;10318670;28;20052;-65
2021/07/16 12:42:38;;;;;;;6.23;3.43;;;;;;;0.01;0.00;59042.03;10319184;28;20048;-65
2021/07/16 12:47:48;;;;;;;7.22;2.70;;;;;;;0.01;0.00;59042.03;10317974;28;20084;-65
2021/07/16 12:52:54;;;;;;;5.03;2.95;;;;;;;0.01;0.00;59042.03;10317899;28;20478;-65
2021/07/16 12:58:05;;;;;;;9.60;3.67;;;;;;;0.01;0.00;59042.03;10317878;28;20045;-65
2021/07/16 13:03:17;;;;;;;8.88;2.63;;;;;;;0.01;0.00;59042.03;10316975;28;20045;-65
2021/07/16 13:08:22;;;;;;;3.03;2.60;;;;;;;0.01;0.00;59042.03;10318348;28;20083;-65
2021/07/16 13:13:25;;;;;;;6.38;3.75;;;;;;;0.01;0.00;59042.03;10317147;28;20099;-65
2021/07/16 13:18:24;;;;;;;7.55;3.15;;;;;;;0.01;0.00;59042.03;10317799;28;20041;-65
2021/07/16 13:23:23;;;;;;;7.70;3.08;;;;;;;0.01;0.00;59042.03;10317237;28;20044;-65
2021/07/16 13:28:23;;;;;;;7.22;2.53;;;;;;;0.01;0.00;59042.03;10317678;28;20076;-66
2021/07/16 13:33:21;;;;;;;10.38;3.90;;;;;;;0.01;0.00;59042.03;10316879;28;20056;-65
2021/07/16 13:38:21;;;;;;;4.93;2.55;;;;;;;0.01;0.00;59042.03;10314734;28;20091;-65
2021/07/16 13:43:19;;;;;;;3.95;3.05;;;;;;;0.01;0.00;59042.03;10315199;28;20338;-66
2021/07/16 13:48:19;;;;;;;7.68;3.35;;;;;;;0.01;0.00;59042.03;10298740;28;20048;-65
2021/07/16 13:53:18;;;;;;;4.47;2.47;;;;;;;0.01;0.00;59042.03;10316566;28;20048;-65
2021/07/16 13:58:17;;;;;;;4.65;2.63;;;;;;;0.01;0.00;59042.03;10297998;28;20498;-65
2021/07/16 14:03:16;;;;;;;8.35;2.95;;;;;;;0.01;0.00;59042.03;10315854;28;20045;-65
2021/07/16 14:08:16;;;;;;;9.88;2.90;;;;;;;0.01;0.00;59042.03;10316741;28;20087;-65
2021/07/16 14:13:15;;;;;;;9.18;3.40;;;;;;;0.01;0.00;59042.03;10315245;28;20071;-65
2021/07/16 14:18:14;;;;;;;5.05;2.53;;;;;;;0.01;0.00;59042.03;10315704;28;20080;-65
2021/07/16 14:23:13;;;;;;;5.47;3.22;;;;;;;0.01;0.00;59042.03;10315889;28;20051;-65
2021/07/16 14:28:13;;;;;;;10.10;3.80;;;;;;;0.01;0.00;59042.03;10315666;28;20473;-65
2021/07/16 14:33:12;;;;;;;10.45;3.08;;;;;;;0.01;0.00;59042.03;10315200;28;20048;-65
2021/07/16 14:38:10;;;;;;;8.63;3.65;;;;;;;0.01;0.00;59042.03;10315866;28;20080;-65
2021/07/16 14:43:09;;;;;;;6.00;2.90;;;;;;;0.01;0.00;59042.03;10315264;28;20045;-65
2021/07/16 14:48:09;;;;;;;7.90;3.15;;;;;;;0.01;0.00;59042.03;10314268;28;20080;-65
2021/07/16 14:53:08;;;;;;;7.93;3.60;;;;;;;0.01;0.00;59042.03;10316281;28;20040;-65
2021/07/16 14:58:07;;;;;;;13.63;4.10;;;;;;;0.01;0.00;59042.03;10315807;28;20043;-65
2021/07/16 15:03:06;;;;;;;15.75;6.70;;;;;;;0.01;0.00;59042.03;10306018;28;20068;-65
2021/07/16 15:08:07;;;;;;;9.55;5.28;;;;;;;0.01;0.00;59042.03;10306050;28;20481;-64
2021/07/16 15:13:06;;;;;;;7.88;3.78;;;;;;;0.01;0.00;59042.03;10288049;28;20068;-63
2021/07/16 15:18:05;;;;;;;9.90;3.65;;;;;;;0.01;0.00;59042.03;10316159;28;20501;-65
2021/07/16 15:23:04;;;;;;;9.07;3.70;;;;;;;0.01;0.00;59042.03;10317715;28;20076;-64
2021/07/16 15:28:04;;;;;;;8.50;3.03;;;;;;;0.01;0.00;59042.03;10319981;28;20091;-65
2021/07/16 15:33:03;;;;;;;8.18;3.92;;;;;;;0.01;0.00;59042.03;10318634;28;20080;-64
2021/07/16 15:38:02;;;;;;;6.05;3.30;;;;;;;0.01;0.00;59042.03;10320316;28;20084;-64
2021/07/16 15:43:01;;;;;;;9.02;3.22;;;;;;;0.01;0.00;59042.03;10321151;28;20421;-64
2021/07/16 15:48:02;;;;;;;9.02;4.30;;;;;;;0.01;0.00;59042.03;10320899;28;20071;-64
2021/07/16 15:53:02;;;;;;;13.45;2.97;;;;;;;0.01;0.00;59042.03;10320336;28;20505;-65
2021/07/16 15:58:01;;;;;;;12.13;3.40;;;;;;;0.01;0.00;59042.03;10320886;28;20072;-64
2021/07/16 16:03:01;;;;;;;8.38;2.70;;;;;;;0.01;0.00;59042.03;10320086;28;20040;-63
2021/07/16 16:08:00;;;;;;;4.75;3.45;;;;;;;0.01;0.00;59042.03;10319687;28;20126;-64
2021/07/16 16:13:00;;;;;;;6.65;3.25;;;;;;;0.01;0.00;59042.03;10318339;28;20075;-64
2021/07/16 16:17:58;;;;;;;6.43;3.00;;;;;;;0.01;0.00;59042.03;10317867;28;20045;-64
2021/07/16 16:22:59;;;;;;;7.75;2.63;;;;;;;0.01;0.00;59042.03;10316610;28;20048;-63
2021/07/16 16:27:58;;;;;;;12.10;3.60;;;;;;;0.01;0.00;59042.03;10312006;28;20083;-64
2021/07/16 16:32:57;;;;;;;12.98;5.00;;;;;;;0.01;0.00;59042.03;10298403;28;20052;-64
2021/07/16 16:37:56;;;;;;;15.65;4.97;;;;;;;0.01;0.00;59042.03;10315205;28;20582;-65
2021/07/16 16:43:00;;;;;;;8.98;3.58;;;;;;;0.01;0.00;59042.03;10318779;28;20387;-64
2021/07/16 16:47:59;;;;;;;6.80;3.20;;;;;;;0.01;0.00;59042.03;10317804;28;20068;-66
2021/07/16 16:52:57;;;;;;;10.35;3.55;;;;;;;0.01;0.00;59042.03;10316834;28;20040;-65
2021/07/16 16:57:56;;;;;;;6.78;2.85;;;;;;;0.01;0.00;59042.03;10306287;28;20074;-65
2021/07/16 17:02:56;;;;;;;5.32;3.60;;;;;;;0.01;0.00;59042.03;10311701;28;20060;-66
2021/07/16 17:07:55;;;;;;;9.43;3.40;;;;;;;0.01;0.00;59042.03;10312167;28;20083;-66
2021/07/16 17:12:54;;;;;;;4.95;3.47;;;;;;;0.01;0.00;59042.03;10314369;28;20083;-66
2021/07/16 17:17:53;;;;;;;7.07;3.17;;;;;;;0.01;0.00;59042.03;10316713;28;20180;-67
2021/07/16 17:22:54;;;;;;;8.40;2.70;;;;;;;0.01;0.00;59042.03;10317706;28;20411;-66
2021/07/16 17:27:52;;;;;;;11.02;3.70;;;;;;;0.01;0.00;59042.03;10315840;28;20087;-66
2021/07/16 17:32:51;;;;;;;8.40;3.17;;;;;;;0.01;0.00;59042.03;10314711;28;20090;-66
2021/07/16 17:37:51;;;;;;;25.92;3.88;;;;;;;0.01;0.00;59042.03;10315139;28;20045;-68
2021/07/16 17:42:52;;;;;;;16.10;3.20;;;;;;;0.01;0.00;59042.03;10315806;28;20044;-64
2021/07/16 17:47:51;;;;;;;9.75;3.03;;;;;;;0.01;0.00;59042.03;10285427;28;20052;-65
2021/07/16 17:52:54;;;;;;;15.15;4.00;;;;;;;0.01;0.00;59042.03;10295748;28;20068;-67
2021/07/16 17:57:56;;;;;;;8.27;3.65;;;;;;;0.01;0.00;59042.03;10295657;28;20075;-62
2021/07/16 18:02:55;;;;;;;9.75;3.22;;;;;;;0.01;0.00;59042.03;10298151;28;20095;-66
2021/07/16 18:07:56;;;;;;;10.60;4.07;;;;;;;0.01;0.00;59042.03;10297685;28;20033;-66
2021/07/16 18:13:01;;;;;;;7.82;3.33;;;;;;;0.01;0.00;59042.03;10295090;28;20643;-65
2021/07/16 18:18:00;;;;;;;14.48;3.45;;;;;;;0.01;0.00;59042.03;10294150;28;20049;-66
2021/07/16 18:23:00;;;;;;;10.98;2.78;;;;;;;0.01;0.00;59042.03;10293701;28;20057;-65
2021/07/16 18:28:00;;;;;;;4.18;2.53;;;;;;;0.01;0.00;59042.03;10308797;28;20064;-65
2021/07/16 18:32:59;;;;;;;9.60;3.70;;;;;;;0.01;0.00;59042.03;10305699;28;20091;-66
2021/07/16 18:37:58;;;;;;;6.78;2.88;;;;;;;0.01;0.00;59042.03;10309284;28;20071;-66
2021/07/16 18:42:57;;;;;;;9.25;2.83;;;;;;;0.01;0.00;59042.03;10309591;28;20525;-64
2021/07/16 18:47:58;;;;;;;5.05;2.25;;;;;;;0.01;0.00;59042.03;10309304;28;20068;-66
2021/07/16 18:52:57;;;;;;;7.30;3.03;;;;;;;0.01;0.00;59042.03;10314573;28;20573;-64
2021/07/16 18:57:55;;;;;;;7.57;2.85;;;;;;;0.01;0.00;59042.03;10318011;28;20106;-65
2021/07/16 19:02:54;;;;;;;10.57;3.28;;;;;;;0.01;0.00;59042.03;10318192;28;20099;-65
2021/07/16 19:07:55;;;;;;;8.77;3.10;;;;;;;0.01;0.00;59042.03;10303371;28;20048;-66
2021/07/16 19:12:54;;;;;;;6.53;2.97;;;;;;;0.01;0.00;59042.03;10312912;28;20064;-66
2021/07/16 19:17:53;;;;;;;9.77;2.47;;;;;;;0.01;0.00;59042.03;10321559;28;20033;-66
2021/07/16 19:22:55;;;;;;;12.02;4.55;;;;;;;0.01;0.00;59042.03;10321043;28;20048;-64
2021/07/16 19:27:55;;;;;;;7.97;3.45;;;;;;;0.01;0.00;59042.03;10320005;28;20075;-66
2021/07/16 19:32:53;;;;;;;6.25;3.40;;;;;;;0.01;0.00;59042.03;10320789;28;20076;-66
2021/07/16 19:37:53;;;;;;;6.25;3.05;;;;;;;0.01;0.00;59042.03;10314114;28;20434;-66
2021/07/16 19:42:53;;;;;;;6.30;3.28;;;;;;;0.01;0.00;59042.03;10312490;28;20041;-65
2021/07/16 19:47:52;;;;;;;14.18;3.53;;;;;;;0.01;0.00;59042.03;10320465;28;20053;-66
2021/07/16 19:52:51;;;;;;;8.55;3.20;;;;;;;0.01;0.00;59042.03;10319117;28;20473;-65
2021/07/16 19:57:50;;;;;;;5.53;3.20;;;;;;;0.01;0.00;59042.03;10317628;28;20067;-66
2021/07/16 20:02:51;;;;;;;11.38;3.40;;;;;;;0.01;0.00;59042.03;10319211;28;20049;-66
2021/07/16 20:07:50;;;;;;;8.48;2.70;;;;;;;0.01;0.00;59042.03;10318483;28;20501;-66
2021/07/16 20:12:49;;;;;;;13.35;2.97;;;;;;;0.01;0.00;59042.03;10313291;28;20076;-66
2021/07/16 20:17:49;;;;;;;9.05;3.25;;;;;;;0.01;0.00;59042.03;10320007;28;20048;-66
2021/07/16 20:22:49;;;;;;;13.68;3.03;;;;;;;0.01;0.00;59042.03;10320024;28;20036;-67
2021/07/16 20:27:50;;;;;;;8.02;3.10;;;;;;;0.01;0.00;59042.03;10319697;28;20410;-66
2021/07/16 20:32:49;;;;;;;5.95;3.10;;;;;;;0.01;0.00;59042.03;10318894;28;20095;-66
2021/07/16 20:37:49;;;;;;;9.52;3.80;;;;;;;0.01;0.00;59042.03;10319670;28;20041;-66
2021/07/16 20:42:48;;;;;;;8.30;3.03;;;;;;;0.01;0.00;59042.03;10318346;28;20048;-66
2021/07/16 20:47:47;;;;;;;13.73;4.10;;;;;;;0.01;0.00;59042.03;10319205;28;20045;-66
2021/07/16 20:52:46;;;;;;;16.30;3.10;;;;;;;0.01;0.00;59042.03;10318320;28;20072;-66
2021/07/16 20:57:46;;;;;;;7.85;3.10;;;;;;;0.01;0.00;59042.03;10317991;28;20051;-66
2021/07/16 21:02:45;;;;;;;9.32;3.45;;;;;;;0.01;0.00;59042.03;10300140;28;20068;-66
2021/07/16 21:07:44;;;;;;;12.30;3.03;;;;;;;0.01;0.00;59042.03;10317952;28;20045;-66
2021/07/16 21:12:43;;;;;;;8.23;3.22;;;;;;;0.01;0.00;59042.03;10317138;28;20103;-66
2021/07/16 21:18:00;;;;;;;8.70;3.30;;;;;;;0.01;0.00;59042.03;10317363;28;20038;-66
2021/07/16 21:22:59;;;;;;;9.40;3.70;;;;;;;0.01;0.00;59042.03;10317729;28;20070;-65
2021/07/16 21:27:58;;;;;;;10.95;3.40;;;;;;;0.01;0.00;59042.03;10316566;28;20508;-66
2021/07/16 21:32:57;;;;;;;7.35;2.92;;;;;;;0.01;0.00;59042.03;10316857;28;20087;-66
2021/07/16 21:37:57;;;;;;;4.95;2.83;;;;;;;0.01;0.00;59042.03;10316571;28;20056;-66
2021/07/16 21:42:56;;;;;;;12.55;3.28;;;;;;;0.01;0.00;59042.03;10317169;28;20063;-66
2021/07/16 21:47:57;;;;;;;10.70;3.63;;;;;;;0.01;0.00;59042.03;10316009;28;20410;-66
2021/07/16 21:52:57;;;;;;;8.75;3.25;;;;;;;0.01;0.00;59042.03;10315728;28;20501;-66
2021/07/16 21:57:55;;;;;;;12.50;2.88;;;;;;;0.01;0.00;59042.03;10316750;28;20048;-65
2021/07/16 22:02:54;;;;;;;6.38;3.35;;;;;;;0.01;0.00;59042.03;10316089;28;20044;-67
2021/07/16 22:07:54;;;;;;;7.50;3.17;;;;;;;0.01;0.00;59042.03;10316347;28;20044;-67
2021/07/16 22:12:54;;;;;;;8.48;2.70;;;;;;;0.01;0.00;59042.03;10316410;28;20040;-67
2021/07/16 22:17:53;;;;;;;7.78;3.25;;;;;;;0.01;0.00;59042.03;10315819;28;20048;-67
2021/07/16 22:22:51;;;;;;;4.80;2.65;;;;;;;0.01;0.00;59042.03;10315908;28;20418;-66
2021/07/16 22:27:50;;;;;;;9.48;3.22;;;;;;;0.01;0.00;59042.03;10322376;28;20049;-67
2021/07/16 22:32:50;;;;;;;11.88;3.63;;;;;;;0.01;0.00;59042.03;10324103;28;20095;-67
2021/07/16 22:37:50;;;;;;;9.68;3.30;;;;;;;0.01;0.00;59042.03;10325118;28;20040;-66
2021/07/16 22:42:49;;;;;;;14.85;4.85;;;;;;;0.01;0.00;59042.03;10322590;28;20072;-67
2021/07/16 22:47:50;;;;;;;7.97;3.03;;;;;;;0.01;0.00;59042.03;10304958;28;20490;-66
2021/07/16 22:52:49;;;;;;;13.23;3.15;;;;;;;0.01;0.00;59042.03;10322602;28;20083;-67
2021/07/16 22:57:48;;;;;;;9.73;3.08;;;;;;;0.01;0.00;59042.03;10321872;28;20433;-68
2021/07/16 23:02:47;;;;;;;15.30;3.55;;;;;;;0.01;0.00;59042.03;10322297;28;20076;-66
2021/07/16 23:07:48;;;;;;;8.88;3.35;;;;;;;0.01;0.00;59042.03;10322949;28;20040;-66
2021/07/16 23:12:54;;;;;;;12.93;3.70;;;;;;;0.01;0.00;59042.03;10321702;28;20091;-66
2021/07/16 23:17:53;;;;;;;6.38;3.00;;;;;;;0.01;0.00;59042.03;10322698;28;20079;-66
2021/07/16 23:22:53;;;;;;;8.10;2.92;;;;;;;0.01;0.00;59042.03;10322519;28;20544;-67
2021/07/16 23:27:52;;;;;;;8.32;3.05;;;;;;;0.01;0.00;59042.03;10321502;28;20049;-67
2021/07/16 23:32:51;;;;;;;7.10;2.85;;;;;;;0.01;0.00;59042.03;10320471;28;20104;-67
2021/07/16 23:37:50;;;;;;;8.65;2.85;;;;;;;0.01;0.00;59042.03;10321187;28;20056;-64
2021/07/16 23:42:50;;;;;;;8.05;3.00;;;;;;;0.01;0.00;59042.03;10321673;28;20490;-65
2021/07/16 23:47:58;;;;;;;6.38;3.05;;;;;;;0.01;0.00;59042.03;10321889;28;20033;-63
2021/07/16 23:52:58;;;;;;;9.65;4.22;;;;;;;0.01;0.00;59042.03;10320043;28;20098;-66
2021/07/16 23:57:58;;;;;;;14.68;4.03;;;;;;;0.01;0.00;59042.03;10319602;28;20532;-65
